sensor_id;sensor_type;location;lat;lon;timestamp;P1;durP1;ratioP1;P2;durP2;ratioP2
67132;SDS011;54052;53.542;49.408;2023-02-04T00:01:16;25.90;;;13.88;;
67132;SDS011;54052;53.542;49.408;2023-02-04T00:03:42;28.73;;;16.10;;
67132;SDS011;54052;53.542;49.408;2023-02-04T00:06:09;25.85;;;16.40;;
67132;SDS011;54052;53.542;49.408;2023-02-04T00:08:35;32.63;;;17.70;;
67132;SDS011;54052;53.542;49.408;2023-02-04T00:11:02;29.90;;;16.27;;
67132;SDS011;54052;53.542;49.408;2023-02-04T00:13:29;30.25;;;16.65;;
67132;SDS011;54052;53.542;49.408;2023-02-04T00:15:56;33.17;;;18.00;;
67132;SDS011;54052;53.542;49.408;2023-02-04T00:18:22;33.00;;;17.60;;
67132;SDS011;54052;53.542;49.408;2023-02-04T00:20:48;33.60;;;18.30;;
67132;SDS011;54052;53.542;49.408;2023-02-04T00:23:14;33.80;;;20.20;;
67132;SDS011;54052;53.542;49.408;2023-02-04T00:25:41;34.38;;;21.83;;
67132;SDS011;54052;53.542;49.408;2023-02-04T00:28:07;35.65;;;21.08;;
67132;SDS011;54052;53.542;49.408;2023-02-04T00:30:33;31.02;;;17.80;;
67132;SDS011;54052;53.542;49.408;2023-02-04T00:32:59;28.23;;;16.23;;
67132;SDS011;54052;53.542;49.408;2023-02-04T00:35:26;32.30;;;17.10;;
67132;SDS011;54052;53.542;49.408;2023-02-04T00:37:52;34.65;;;17.85;;
67132;SDS011;54052;53.542;49.408;2023-02-04T00:40:19;34.20;;;16.60;;
67132;SDS011;54052;53.542;49.408;2023-02-04T00:42:45;46.13;;;17.90;;
67132;SDS011;54052;53.542;49.408;2023-02-04T00:45:11;34.67;;;18.48;;
67132;SDS011;54052;53.542;49.408;2023-02-04T00:47:38;40.92;;;18.25;;
67132;SDS011;54052;53.542;49.408;2023-02-04T00:50:05;37.38;;;18.40;;
67132;SDS011;54052;53.542;49.408;2023-02-04T00:52:31;49.60;;;17.90;;
67132;SDS011;54052;53.542;49.408;2023-02-04T00:54:57;48.20;;;18.42;;
67132;SDS011;54052;53.542;49.408;2023-02-04T00:57:24;46.58;;;18.23;;
67132;SDS011;54052;53.542;49.408;2023-02-04T00:59:50;46.40;;;18.23;;
67132;SDS011;54052;53.542;49.408;2023-02-04T01:02:16;54.00;;;16.17;;
67132;SDS011;54052;53.542;49.408;2023-02-04T01:04:42;39.42;;;17.35;;
67132;SDS011;54052;53.542;49.408;2023-02-04T01:07:09;42.70;;;17.75;;
67132;SDS011;54052;53.542;49.408;2023-02-04T01:09:35;48.85;;;16.08;;
67132;SDS011;54052;53.542;49.408;2023-02-04T01:12:02;53.13;;;16.55;;
67132;SDS011;54052;53.542;49.408;2023-02-04T01:14:28;33.80;;;16.10;;
67132;SDS011;54052;53.542;49.408;2023-02-04T01:16:54;35.15;;;16.30;;
67132;SDS011;54052;53.542;49.408;2023-02-04T01:19:21;27.00;;;15.55;;
67132;SDS011;54052;53.542;49.408;2023-02-04T01:21:47;25.80;;;15.40;;
67132;SDS011;54052;53.542;49.408;2023-02-04T01:24:13;29.85;;;15.90;;
67132;SDS011;54052;53.542;49.408;2023-02-04T01:26:40;34.03;;;15.43;;
67132;SDS011;54052;53.542;49.408;2023-02-04T01:29:06;25.40;;;14.55;;
67132;SDS011;54052;53.542;49.408;2023-02-04T01:31:32;30.75;;;14.50;;
67132;SDS011;54052;53.542;49.408;2023-02-04T01:33:59;31.58;;;15.27;;
67132;SDS011;54052;53.542;49.408;2023-02-04T01:36:28;29.63;;;14.80;;
67132;SDS011;54052;53.542;49.408;2023-02-04T01:38:54;24.63;;;14.13;;
67132;SDS011;54052;53.542;49.408;2023-02-04T01:41:21;28.75;;;15.55;;
67132;SDS011;54052;53.542;49.408;2023-02-04T01:43:47;33.45;;;16.15;;
67132;SDS011;54052;53.542;49.408;2023-02-04T01:46:14;27.40;;;14.75;;
67132;SDS011;54052;53.542;49.408;2023-02-04T01:48:41;31.80;;;15.98;;
67132;SDS011;54052;53.542;49.408;2023-02-04T01:51:08;30.83;;;14.38;;
67132;SDS011;54052;53.542;49.408;2023-02-04T01:53:36;38.95;;;12.68;;
67132;SDS011;54052;53.542;49.408;2023-02-04T01:56:20;35.75;;;12.38;;
67132;SDS011;54052;53.542;49.408;2023-02-04T01:58:48;25.88;;;12.82;;
67132;SDS011;54052;53.542;49.408;2023-02-04T02:01:31;24.48;;;12.48;;
67132;SDS011;54052;53.542;49.408;2023-02-04T02:03:58;35.88;;;13.57;;
67132;SDS011;54052;53.542;49.408;2023-02-04T02:06:25;40.35;;;14.35;;
67132;SDS011;54052;53.542;49.408;2023-02-04T02:08:51;42.78;;;15.68;;
67132;SDS011;54052;53.542;49.408;2023-02-04T02:11:18;44.45;;;15.32;;
67132;SDS011;54052;53.542;49.408;2023-02-04T02:13:44;55.40;;;16.30;;
67132;SDS011;54052;53.542;49.408;2023-02-04T02:16:10;69.97;;;17.35;;
67132;SDS011;54052;53.542;49.408;2023-02-04T02:18:36;64.18;;;17.80;;
67132;SDS011;54052;53.542;49.408;2023-02-04T02:21:04;88.65;;;19.85;;
67132;SDS011;54052;53.542;49.408;2023-02-04T02:26:14;87.95;;;20.80;;
67132;SDS011;54052;53.542;49.408;2023-02-04T02:28:41;98.70;;;20.38;;
67132;SDS011;54052;53.542;49.408;2023-02-04T02:31:08;65.28;;;19.05;;
67132;SDS011;54052;53.542;49.408;2023-02-04T02:33:34;96.13;;;20.90;;
67132;SDS011;54052;53.542;49.408;2023-02-04T02:36:01;99.63;;;22.27;;
67132;SDS011;54052;53.542;49.408;2023-02-04T02:38:27;109.47;;;21.60;;
67132;SDS011;54052;53.542;49.408;2023-02-04T02:40:54;102.18;;;22.90;;
67132;SDS011;54052;53.542;49.408;2023-02-04T02:43:22;96.75;;;21.75;;
67132;SDS011;54052;53.542;49.408;2023-02-04T02:45:50;86.03;;;20.35;;
67132;SDS011;54052;53.542;49.408;2023-02-04T02:48:18;80.05;;;20.40;;
67132;SDS011;54052;53.542;49.408;2023-02-04T02:50:45;67.70;;;19.33;;
67132;SDS011;54052;53.542;49.408;2023-02-04T02:53:14;50.15;;;17.25;;
67132;SDS011;54052;53.542;49.408;2023-02-04T02:55:42;41.83;;;17.67;;
67132;SDS011;54052;53.542;49.408;2023-02-04T02:58:19;39.17;;;17.52;;
67132;SDS011;54052;53.542;49.408;2023-02-04T03:00:46;53.17;;;18.13;;
67132;SDS011;54052;53.542;49.408;2023-02-04T03:03:14;55.45;;;19.52;;
67132;SDS011;54052;53.542;49.408;2023-02-04T03:05:50;51.13;;;17.20;;
67132;SDS011;54052;53.542;49.408;2023-02-04T03:08:21;45.22;;;17.63;;
67132;SDS011;54052;53.542;49.408;2023-02-04T03:10:47;41.72;;;16.85;;
67132;SDS011;54052;53.542;49.408;2023-02-04T03:13:14;28.15;;;15.90;;
67132;SDS011;54052;53.542;49.408;2023-02-04T03:15:42;28.30;;;16.15;;
67132;SDS011;54052;53.542;49.408;2023-02-04T03:18:10;27.42;;;15.50;;
67132;SDS011;54052;53.542;49.408;2023-02-04T03:20:38;29.90;;;16.05;;
67132;SDS011;54052;53.542;49.408;2023-02-04T03:23:05;43.05;;;16.20;;
67132;SDS011;54052;53.542;49.408;2023-02-04T03:25:32;29.63;;;15.65;;
67132;SDS011;54052;53.542;49.408;2023-02-04T03:27:58;38.30;;;16.98;;
67132;SDS011;54052;53.542;49.408;2023-02-04T03:30:25;56.53;;;17.90;;
67132;SDS011;54052;53.542;49.408;2023-02-04T03:32:52;67.60;;;16.35;;
67132;SDS011;54052;53.542;49.408;2023-02-04T03:35:18;58.92;;;15.13;;
67132;SDS011;54052;53.542;49.408;2023-02-04T03:37:45;68.78;;;14.40;;
67132;SDS011;54052;53.542;49.408;2023-02-04T03:40:11;48.40;;;14.40;;
67132;SDS011;54052;53.542;49.408;2023-02-04T03:42:38;53.10;;;13.70;;
67132;SDS011;54052;53.542;49.408;2023-02-04T03:45:05;22.50;;;10.90;;
67132;SDS011;54052;53.542;49.408;2023-02-04T03:47:31;22.83;;;11.43;;
67132;SDS011;54052;53.542;49.408;2023-02-04T03:49:58;21.10;;;12.32;;
67132;SDS011;54052;53.542;49.408;2023-02-04T03:52:24;23.77;;;12.05;;
67132;SDS011;54052;53.542;49.408;2023-02-04T03:54:50;21.58;;;11.15;;
67132;SDS011;54052;53.542;49.408;2023-02-04T03:57:16;17.05;;;10.05;;
67132;SDS011;54052;53.542;49.408;2023-02-04T03:59:43;20.45;;;10.77;;
67132;SDS011;54052;53.542;49.408;2023-02-04T04:02:09;18.58;;;11.30;;
67132;SDS011;54052;53.542;49.408;2023-02-04T04:04:35;21.35;;;11.65;;
67132;SDS011;54052;53.542;49.408;2023-02-04T04:07:02;19.83;;;11.30;;
67132;SDS011;54052;53.542;49.408;2023-02-04T04:09:28;108.55;;;96.30;;
67132;SDS011;54052;53.542;49.408;2023-02-04T04:11:54;33.28;;;13.65;;
67132;SDS011;54052;53.542;49.408;2023-02-04T04:14:21;22.83;;;13.70;;
67132;SDS011;54052;53.542;49.408;2023-02-04T04:16:47;21.45;;;11.10;;
67132;SDS011;54052;53.542;49.408;2023-02-04T04:19:13;18.52;;;11.30;;
67132;SDS011;54052;53.542;49.408;2023-02-04T04:21:39;23.92;;;11.65;;
67132;SDS011;54052;53.542;49.408;2023-02-04T04:24:06;22.20;;;11.35;;
67132;SDS011;54052;53.542;49.408;2023-02-04T04:26:32;18.48;;;11.30;;
67132;SDS011;54052;53.542;49.408;2023-02-04T04:28:58;25.20;;;11.25;;
67132;SDS011;54052;53.542;49.408;2023-02-04T04:31:24;18.35;;;11.68;;
67132;SDS011;54052;53.542;49.408;2023-02-04T04:33:51;26.05;;;11.55;;
67132;SDS011;54052;53.542;49.408;2023-02-04T04:36:17;25.13;;;11.90;;
67132;SDS011;54052;53.542;49.408;2023-02-04T04:38:43;28.58;;;12.02;;
67132;SDS011;54052;53.542;49.408;2023-02-04T04:41:09;23.15;;;12.30;;
67132;SDS011;54052;53.542;49.408;2023-02-04T04:43:36;18.30;;;12.15;;
67132;SDS011;54052;53.542;49.408;2023-02-04T04:46:02;22.00;;;11.50;;
67132;SDS011;54052;53.542;49.408;2023-02-04T04:48:28;23.35;;;12.45;;
67132;SDS011;54052;53.542;49.408;2023-02-04T04:50:55;25.17;;;12.38;;
67132;SDS011;54052;53.542;49.408;2023-02-04T04:53:22;32.72;;;11.88;;
67132;SDS011;54052;53.542;49.408;2023-02-04T04:55:49;22.70;;;12.73;;
67132;SDS011;54052;53.542;49.408;2023-02-04T04:58:15;36.75;;;16.83;;
67132;SDS011;54052;53.542;49.408;2023-02-04T05:00:41;49.45;;;17.98;;
67132;SDS011;54052;53.542;49.408;2023-02-04T05:03:07;51.83;;;19.20;;
67132;SDS011;54052;53.542;49.408;2023-02-04T05:05:34;43.38;;;18.70;;
67132;SDS011;54052;53.542;49.408;2023-02-04T05:08:04;40.95;;;19.00;;
67132;SDS011;54052;53.542;49.408;2023-02-04T05:10:35;35.20;;;17.60;;
67132;SDS011;54052;53.542;49.408;2023-02-04T05:13:02;39.13;;;18.65;;
67132;SDS011;54052;53.542;49.408;2023-02-04T05:15:28;43.17;;;18.20;;
67132;SDS011;54052;53.542;49.408;2023-02-04T05:17:54;41.55;;;19.38;;
67132;SDS011;54052;53.542;49.408;2023-02-04T05:20:20;33.00;;;18.25;;
67132;SDS011;54052;53.542;49.408;2023-02-04T05:22:47;41.67;;;18.05;;
67132;SDS011;54052;53.542;49.408;2023-02-04T05:25:13;31.75;;;17.30;;
67132;SDS011;54052;53.542;49.408;2023-02-04T05:27:41;31.05;;;18.10;;
67132;SDS011;54052;53.542;49.408;2023-02-04T05:30:09;38.20;;;19.05;;
67132;SDS011;54052;53.542;49.408;2023-02-04T05:32:36;29.13;;;16.90;;
67132;SDS011;54052;53.542;49.408;2023-02-04T05:35:03;33.47;;;19.08;;
67132;SDS011;54052;53.542;49.408;2023-02-04T05:37:30;32.63;;;17.85;;
67132;SDS011;54052;53.542;49.408;2023-02-04T05:39:57;29.58;;;15.75;;
67132;SDS011;54052;53.542;49.408;2023-02-04T05:42:23;45.50;;;17.17;;
67132;SDS011;54052;53.542;49.408;2023-02-04T05:44:50;46.78;;;16.98;;
67132;SDS011;54052;53.542;49.408;2023-02-04T05:47:16;40.72;;;15.80;;
67132;SDS011;54052;53.542;49.408;2023-02-04T05:49:45;44.03;;;15.05;;
67132;SDS011;54052;53.542;49.408;2023-02-04T05:52:11;30.30;;;15.15;;
67132;SDS011;54052;53.542;49.408;2023-02-04T05:54:37;29.00;;;14.25;;
67132;SDS011;54052;53.542;49.408;2023-02-04T05:57:04;32.60;;;13.27;;
67132;SDS011;54052;53.542;49.408;2023-02-04T05:59:30;22.88;;;12.27;;
67132;SDS011;54052;53.542;49.408;2023-02-04T06:01:56;22.30;;;13.23;;
67132;SDS011;54052;53.542;49.408;2023-02-04T06:04:23;22.02;;;12.70;;
67132;SDS011;54052;53.542;49.408;2023-02-04T06:06:49;24.20;;;12.95;;
67132;SDS011;54052;53.542;49.408;2023-02-04T06:09:15;25.42;;;12.93;;
67132;SDS011;54052;53.542;49.408;2023-02-04T06:11:41;19.67;;;12.32;;
67132;SDS011;54052;53.542;49.408;2023-02-04T06:14:08;22.67;;;13.23;;
67132;SDS011;54052;53.542;49.408;2023-02-04T06:16:35;22.85;;;13.95;;
67132;SDS011;54052;53.542;49.408;2023-02-04T06:19:01;31.00;;;15.00;;
67132;SDS011;54052;53.542;49.408;2023-02-04T06:21:28;27.13;;;15.15;;
67132;SDS011;54052;53.542;49.408;2023-02-04T06:23:54;35.20;;;18.45;;
67132;SDS011;54052;53.542;49.408;2023-02-04T06:26:20;41.53;;;20.80;;
67132;SDS011;54052;53.542;49.408;2023-02-04T06:28:47;45.03;;;21.25;;
67132;SDS011;54052;53.542;49.408;2023-02-04T06:31:13;36.88;;;20.38;;
67132;SDS011;54052;53.542;49.408;2023-02-04T06:33:39;43.72;;;23.45;;
67132;SDS011;54052;53.542;49.408;2023-02-04T06:36:06;43.70;;;25.23;;
67132;SDS011;54052;53.542;49.408;2023-02-04T06:38:32;36.60;;;22.10;;
67132;SDS011;54052;53.542;49.408;2023-02-04T06:40:58;49.10;;;27.77;;
67132;SDS011;54052;53.542;49.408;2023-02-04T06:43:24;40.70;;;26.83;;
67132;SDS011;54052;53.542;49.408;2023-02-04T06:45:52;41.60;;;20.30;;
67132;SDS011;54052;53.542;49.408;2023-02-04T06:48:18;38.25;;;20.70;;
67132;SDS011;54052;53.542;49.408;2023-02-04T06:50:44;46.33;;;23.60;;
67132;SDS011;54052;53.542;49.408;2023-02-04T06:53:11;41.72;;;20.70;;
67132;SDS011;54052;53.542;49.408;2023-02-04T06:55:37;42.78;;;19.60;;
67132;SDS011;54052;53.542;49.408;2023-02-04T06:58:04;43.58;;;19.55;;
67132;SDS011;54052;53.542;49.408;2023-02-04T07:00:30;39.35;;;20.08;;
67132;SDS011;54052;53.542;49.408;2023-02-04T07:02:56;34.45;;;19.75;;
67132;SDS011;54052;53.542;49.408;2023-02-04T07:05:23;46.95;;;27.23;;
67132;SDS011;54052;53.542;49.408;2023-02-04T07:07:50;35.83;;;19.45;;
67132;SDS011;54052;53.542;49.408;2023-02-04T07:10:16;35.55;;;18.80;;
67132;SDS011;54052;53.542;49.408;2023-02-04T07:12:43;30.95;;;18.70;;
67132;SDS011;54052;53.542;49.408;2023-02-04T07:15:09;41.30;;;19.38;;
67132;SDS011;54052;53.542;49.408;2023-02-04T07:17:36;33.67;;;18.90;;
67132;SDS011;54052;53.542;49.408;2023-02-04T07:20:02;36.38;;;17.85;;
67132;SDS011;54052;53.542;49.408;2023-02-04T07:22:28;37.38;;;18.70;;
67132;SDS011;54052;53.542;49.408;2023-02-04T07:24:55;35.00;;;17.70;;
67132;SDS011;54052;53.542;49.408;2023-02-04T07:27:21;36.55;;;19.27;;
67132;SDS011;54052;53.542;49.408;2023-02-04T07:29:47;33.60;;;18.27;;
67132;SDS011;54052;53.542;49.408;2023-02-04T07:32:13;30.42;;;18.80;;
67132;SDS011;54052;53.542;49.408;2023-02-04T07:34:40;34.92;;;18.98;;
67132;SDS011;54052;53.542;49.408;2023-02-04T07:37:06;30.42;;;18.73;;
67132;SDS011;54052;53.542;49.408;2023-02-04T07:39:33;34.80;;;18.67;;
67132;SDS011;54052;53.542;49.408;2023-02-04T07:41:59;36.10;;;19.42;;
67132;SDS011;54052;53.542;49.408;2023-02-04T07:44:25;34.53;;;19.75;;
67132;SDS011;54052;53.542;49.408;2023-02-04T07:46:52;36.55;;;19.90;;
67132;SDS011;54052;53.542;49.408;2023-02-04T07:49:18;42.92;;;18.75;;
67132;SDS011;54052;53.542;49.408;2023-02-04T07:51:44;35.38;;;19.67;;
67132;SDS011;54052;53.542;49.408;2023-02-04T07:54:10;35.88;;;19.70;;
67132;SDS011;54052;53.542;49.408;2023-02-04T07:56:37;37.20;;;20.27;;
67132;SDS011;54052;53.542;49.408;2023-02-04T07:59:03;39.40;;;18.92;;
67132;SDS011;54052;53.542;49.408;2023-02-04T08:01:29;31.17;;;17.83;;
67132;SDS011;54052;53.542;49.408;2023-02-04T08:03:55;33.95;;;17.30;;
67132;SDS011;54052;53.542;49.408;2023-02-04T08:06:22;34.92;;;17.92;;
67132;SDS011;54052;53.542;49.408;2023-02-04T08:08:48;30.52;;;18.30;;
67132;SDS011;54052;53.542;49.408;2023-02-04T08:11:14;31.92;;;19.17;;
67132;SDS011;54052;53.542;49.408;2023-02-04T08:13:40;38.58;;;18.75;;
67132;SDS011;54052;53.542;49.408;2023-02-04T08:16:07;38.17;;;19.55;;
67132;SDS011;54052;53.542;49.408;2023-02-04T08:18:33;37.20;;;20.33;;
67132;SDS011;54052;53.542;49.408;2023-02-04T08:20:59;41.33;;;22.90;;
67132;SDS011;54052;53.542;49.408;2023-02-04T08:23:26;43.90;;;23.10;;
67132;SDS011;54052;53.542;49.408;2023-02-04T08:25:53;43.08;;;24.55;;
67132;SDS011;54052;53.542;49.408;2023-02-04T08:28:19;45.00;;;24.75;;
67132;SDS011;54052;53.542;49.408;2023-02-04T08:30:45;44.95;;;23.70;;
67132;SDS011;54052;53.542;49.408;2023-02-04T08:33:11;43.40;;;22.08;;
67132;SDS011;54052;53.542;49.408;2023-02-04T08:35:38;45.40;;;23.58;;
67132;SDS011;54052;53.542;49.408;2023-02-04T08:38:04;46.42;;;25.08;;
67132;SDS011;54052;53.542;49.408;2023-02-04T08:40:30;42.53;;;22.50;;
67132;SDS011;54052;53.542;49.408;2023-02-04T08:42:56;37.38;;;19.77;;
67132;SDS011;54052;53.542;49.408;2023-02-04T08:45:23;30.95;;;17.58;;
67132;SDS011;54052;53.542;49.408;2023-02-04T08:47:49;27.25;;;16.20;;
67132;SDS011;54052;53.542;49.408;2023-02-04T08:50:15;30.55;;;18.33;;
67132;SDS011;54052;53.542;49.408;2023-02-04T08:52:43;27.92;;;17.50;;
67132;SDS011;54052;53.542;49.408;2023-02-04T08:55:09;31.73;;;18.60;;
67132;SDS011;54052;53.542;49.408;2023-02-04T08:57:35;30.52;;;19.02;;
67132;SDS011;54052;53.542;49.408;2023-02-04T09:00:02;34.13;;;17.75;;
67132;SDS011;54052;53.542;49.408;2023-02-04T09:02:29;30.45;;;15.43;;
67132;SDS011;54052;53.542;49.408;2023-02-04T09:04:55;41.83;;;25.02;;
67132;SDS011;54052;53.542;49.408;2023-02-04T09:07:21;32.28;;;17.40;;
67132;SDS011;54052;53.542;49.408;2023-02-04T09:09:48;30.80;;;17.20;;
67132;SDS011;54052;53.542;49.408;2023-02-04T09:12:14;34.97;;;17.88;;
67132;SDS011;54052;53.542;49.408;2023-02-04T09:14:40;34.90;;;17.92;;
67132;SDS011;54052;53.542;49.408;2023-02-04T09:17:06;31.98;;;16.52;;
67132;SDS011;54052;53.542;49.408;2023-02-04T09:19:33;31.42;;;17.15;;
67132;SDS011;54052;53.542;49.408;2023-02-04T09:21:59;32.33;;;17.27;;
67132;SDS011;54052;53.542;49.408;2023-02-04T09:24:26;35.90;;;18.73;;
67132;SDS011;54052;53.542;49.408;2023-02-04T09:26:52;32.10;;;17.83;;
67132;SDS011;54052;53.542;49.408;2023-02-04T09:29:18;35.58;;;18.17;;
67132;SDS011;54052;53.542;49.408;2023-02-04T09:31:44;27.55;;;16.48;;
67132;SDS011;54052;53.542;49.408;2023-02-04T09:34:11;36.45;;;17.90;;
67132;SDS011;54052;53.542;49.408;2023-02-04T09:36:37;31.13;;;18.23;;
67132;SDS011;54052;53.542;49.408;2023-02-04T09:39:04;33.03;;;18.05;;
67132;SDS011;54052;53.542;49.408;2023-02-04T09:41:32;35.88;;;18.85;;
67132;SDS011;54052;53.542;49.408;2023-02-04T09:43:58;32.92;;;17.73;;
67132;SDS011;54052;53.542;49.408;2023-02-04T09:46:25;36.30;;;19.58;;
67132;SDS011;54052;53.542;49.408;2023-02-04T09:48:53;33.58;;;18.38;;
67132;SDS011;54052;53.542;49.408;2023-02-04T09:51:21;34.72;;;18.50;;
67132;SDS011;54052;53.542;49.408;2023-02-04T09:53:51;35.33;;;19.60;;
67132;SDS011;54052;53.542;49.408;2023-02-04T09:56:20;38.25;;;22.70;;
67132;SDS011;54052;53.542;49.408;2023-02-04T09:58:46;36.85;;;20.45;;
67132;SDS011;54052;53.542;49.408;2023-02-04T10:01:13;36.03;;;21.38;;
67132;SDS011;54052;53.542;49.408;2023-02-04T10:03:41;40.03;;;20.17;;
67132;SDS011;54052;53.542;49.408;2023-02-04T10:06:13;41.22;;;20.15;;
67132;SDS011;54052;53.542;49.408;2023-02-04T10:08:40;29.50;;;18.67;;
67132;SDS011;54052;53.542;49.408;2023-02-04T10:11:08;37.00;;;19.40;;
67132;SDS011;54052;53.542;49.408;2023-02-04T10:13:44;38.70;;;22.08;;
67132;SDS011;54052;53.542;49.408;2023-02-04T10:16:23;35.45;;;19.83;;
67132;SDS011;54052;53.542;49.408;2023-02-04T10:18:55;25.02;;;11.10;;
67132;SDS011;54052;53.542;49.408;2023-02-04T10:21:27;37.63;;;11.63;;
67132;SDS011;54052;53.542;49.408;2023-02-04T10:23:57;37.83;;;12.98;;
67132;SDS011;54052;53.542;49.408;2023-02-04T10:26:26;30.67;;;14.13;;
67132;SDS011;54052;53.542;49.408;2023-02-04T10:28:58;27.23;;;13.70;;
67132;SDS011;54052;53.542;49.408;2023-02-04T10:31:39;25.88;;;12.23;;
67132;SDS011;54052;53.542;49.408;2023-02-04T10:36:47;37.80;;;15.10;;
67132;SDS011;54052;53.542;49.408;2023-02-04T10:41:48;32.30;;;14.20;;
67132;SDS011;54052;53.542;49.408;2023-02-04T10:44:33;30.33;;;12.95;;
67132;SDS011;54052;53.542;49.408;2023-02-04T10:47:05;24.10;;;11.77;;
67132;SDS011;54052;53.542;49.408;2023-02-04T10:49:34;27.85;;;12.10;;
67132;SDS011;54052;53.542;49.408;2023-02-04T10:52:01;23.42;;;12.82;;
67132;SDS011;54052;53.542;49.408;2023-02-04T10:54:38;26.05;;;11.70;;
67132;SDS011;54052;53.542;49.408;2023-02-04T10:57:21;23.67;;;11.70;;
67132;SDS011;54052;53.542;49.408;2023-02-04T10:59:49;21.35;;;12.13;;
67132;SDS011;54052;53.542;49.408;2023-02-04T11:04:56;21.83;;;12.85;;
67132;SDS011;54052;53.542;49.408;2023-02-04T11:07:22;23.10;;;13.10;;
67132;SDS011;54052;53.542;49.408;2023-02-04T11:09:49;31.33;;;15.05;;
67132;SDS011;54052;53.542;49.408;2023-02-04T11:12:20;24.85;;;13.15;;
67132;SDS011;54052;53.542;49.408;2023-02-04T11:15:03;26.92;;;9.52;;
67132;SDS011;54052;53.542;49.408;2023-02-04T11:17:30;23.38;;;10.05;;
67132;SDS011;54052;53.542;49.408;2023-02-04T11:20:11;15.70;;;8.32;;
67132;SDS011;54052;53.542;49.408;2023-02-04T11:22:43;12.45;;;6.40;;
67132;SDS011;54052;53.542;49.408;2023-02-04T11:25:29;13.82;;;6.10;;
67132;SDS011;54052;53.542;49.408;2023-02-04T11:27:59;16.10;;;6.10;;
67132;SDS011;54052;53.542;49.408;2023-02-04T11:30:38;14.52;;;5.68;;
67132;SDS011;54052;53.542;49.408;2023-02-04T11:33:04;10.50;;;5.00;;
67132;SDS011;54052;53.542;49.408;2023-02-04T11:35:31;13.43;;;6.80;;
67132;SDS011;54052;53.542;49.408;2023-02-04T11:37:58;11.90;;;5.97;;
67132;SDS011;54052;53.542;49.408;2023-02-04T11:40:34;15.45;;;6.88;;
67132;SDS011;54052;53.542;49.408;2023-02-04T11:43:09;16.45;;;6.97;;
67132;SDS011;54052;53.542;49.408;2023-02-04T11:45:38;16.58;;;7.68;;
67132;SDS011;54052;53.542;49.408;2023-02-04T11:48:10;10.90;;;5.75;;
67132;SDS011;54052;53.542;49.408;2023-02-04T11:50:40;17.75;;;6.70;;
67132;SDS011;54052;53.542;49.408;2023-02-04T11:53:10;10.93;;;5.65;;
67132;SDS011;54052;53.542;49.408;2023-02-04T11:55:42;19.63;;;5.50;;
67132;SDS011;54052;53.542;49.408;2023-02-04T12:00:39;23.55;;;5.85;;
67132;SDS011;54052;53.542;49.408;2023-02-04T12:03:19;15.63;;;5.75;;
67132;SDS011;54052;53.542;49.408;2023-02-04T12:05:55;10.57;;;5.05;;
67132;SDS011;54052;53.542;49.408;2023-02-04T12:08:25;13.93;;;5.00;;
67132;SDS011;54052;53.542;49.408;2023-02-04T12:13:33;11.60;;;4.55;;
67132;SDS011;54052;53.542;49.408;2023-02-04T12:16:10;11.73;;;4.70;;
67132;SDS011;54052;53.542;49.408;2023-02-04T12:18:36;14.52;;;5.20;;
67132;SDS011;54052;53.542;49.408;2023-02-04T12:21:03;10.60;;;4.70;;
67132;SDS011;54052;53.542;49.408;2023-02-04T12:23:30;12.75;;;5.07;;
67132;SDS011;54052;53.542;49.408;2023-02-04T12:25:57;19.05;;;5.45;;
67132;SDS011;54052;53.542;49.408;2023-02-04T12:28:24;11.90;;;4.32;;
67132;SDS011;54052;53.542;49.408;2023-02-04T12:30:50;10.30;;;5.07;;
67132;SDS011;54052;53.542;49.408;2023-02-04T12:33:16;10.50;;;5.70;;
67132;SDS011;54052;53.542;49.408;2023-02-04T12:35:43;12.32;;;5.25;;
67132;SDS011;54052;53.542;49.408;2023-02-04T12:38:09;18.02;;;4.88;;
67132;SDS011;54052;53.542;49.408;2023-02-04T12:40:35;20.88;;;5.88;;
67132;SDS011;54052;53.542;49.408;2023-02-04T12:43:02;12.60;;;5.07;;
67132;SDS011;54052;53.542;49.408;2023-02-04T12:45:28;22.92;;;6.47;;
67132;SDS011;54052;53.542;49.408;2023-02-04T12:47:55;14.88;;;6.63;;
67132;SDS011;54052;53.542;49.408;2023-02-04T12:50:21;28.55;;;8.45;;
67132;SDS011;54052;53.542;49.408;2023-02-04T12:53:05;20.35;;;9.23;;
67132;SDS011;54052;53.542;49.408;2023-02-04T12:55:32;16.83;;;7.70;;
67132;SDS011;54052;53.542;49.408;2023-02-04T12:57:58;13.38;;;6.57;;
67132;SDS011;54052;53.542;49.408;2023-02-04T13:00:25;14.10;;;6.55;;
67132;SDS011;54052;53.542;49.408;2023-02-04T13:02:52;18.08;;;7.13;;
67132;SDS011;54052;53.542;49.408;2023-02-04T13:05:23;16.05;;;7.30;;
67132;SDS011;54052;53.542;49.408;2023-02-04T13:07:50;18.23;;;8.57;;
67132;SDS011;54052;53.542;49.408;2023-02-04T13:10:16;17.13;;;9.05;;
67132;SDS011;54052;53.542;49.408;2023-02-04T13:12:43;22.42;;;9.38;;
67132;SDS011;54052;53.542;49.408;2023-02-04T13:15:09;26.45;;;10.20;;
67132;SDS011;54052;53.542;49.408;2023-02-04T13:17:36;31.20;;;13.52;;
67132;SDS011;54052;53.542;49.408;2023-02-04T13:20:02;37.63;;;13.50;;
67132;SDS011;54052;53.542;49.408;2023-02-04T13:22:29;29.00;;;12.48;;
67132;SDS011;54052;53.542;49.408;2023-02-04T13:24:56;45.08;;;22.77;;
67132;SDS011;54052;53.542;49.408;2023-02-04T13:27:22;39.03;;;22.35;;
67132;SDS011;54052;53.542;49.408;2023-02-04T13:29:48;41.45;;;23.35;;
67132;SDS011;54052;53.542;49.408;2023-02-04T13:32:14;47.25;;;25.88;;
67132;SDS011;54052;53.542;49.408;2023-02-04T13:34:41;53.97;;;29.45;;
67132;SDS011;54052;53.542;49.408;2023-02-04T13:37:07;55.20;;;30.08;;
67132;SDS011;54052;53.542;49.408;2023-02-04T13:39:33;59.80;;;30.50;;
67132;SDS011;54052;53.542;49.408;2023-02-04T13:42:00;48.13;;;23.10;;
67132;SDS011;54052;53.542;49.408;2023-02-04T13:44:26;41.08;;;20.35;;
67132;SDS011;54052;53.542;49.408;2023-02-04T13:46:52;35.22;;;21.40;;
67132;SDS011;54052;53.542;49.408;2023-02-04T13:49:19;39.00;;;20.88;;
67132;SDS011;54052;53.542;49.408;2023-02-04T13:51:46;43.35;;;22.42;;
67132;SDS011;54052;53.542;49.408;2023-02-04T13:54:12;43.75;;;23.08;;
67132;SDS011;54052;53.542;49.408;2023-02-04T13:56:38;40.75;;;24.60;;
67132;SDS011;54052;53.542;49.408;2023-02-04T13:59:06;41.70;;;24.58;;
67132;SDS011;54052;53.542;49.408;2023-02-04T14:01:32;53.53;;;25.25;;
67132;SDS011;54052;53.542;49.408;2023-02-04T14:03:58;43.22;;;23.67;;
67132;SDS011;54052;53.542;49.408;2023-02-04T14:06:24;43.35;;;24.30;;
67132;SDS011;54052;53.542;49.408;2023-02-04T14:09:00;38.17;;;22.05;;
67132;SDS011;54052;53.542;49.408;2023-02-04T14:11:27;30.05;;;17.67;;
67132;SDS011;54052;53.542;49.408;2023-02-04T14:13:53;32.03;;;16.88;;
67132;SDS011;54052;53.542;49.408;2023-02-04T14:16:20;27.27;;;15.90;;
67132;SDS011;54052;53.542;49.408;2023-02-04T14:18:46;28.95;;;16.92;;
67132;SDS011;54052;53.542;49.408;2023-02-04T14:21:12;32.22;;;16.60;;
67132;SDS011;54052;53.542;49.408;2023-02-04T14:23:38;22.77;;;12.50;;
67132;SDS011;54052;53.542;49.408;2023-02-04T14:26:05;24.27;;;11.13;;
67132;SDS011;54052;53.542;49.408;2023-02-04T14:28:31;20.85;;;9.80;;